Time;durP1;ratioP1;P1;durP2;ratioP2;P2;SDS_P1;SDS_P2;PMS_P1;PMS_P2;Temp;Humidity;BMP_temperature;BMP_pressure;BME280_temperature;BME280_humidity;BME280_pressure;Samples;Min_cycle;Max_cycle;Signal;HPM_P1;HPM_P2
2023/05/03 00:00:26;;;;;;;11.85;11.05;;;;;;;;;;5071282;28;20379;-83
2023/05/03 00:02:52;;;;;;;11.77;10.88;;;;;;;;;;5071281;28;20393;-84
2023/05/03 00:05:19;;;;;;;12.48;11.38;;;;;;;;;;5071323;28;20389;-84
2023/05/03 00:07:45;;;;;;;11.80;10.90;;;;;;;;;;5071229;28;20780;-84
2023/05/03 00:10:12;;;;;;;10.48;9.70;;;;;;;;;;5071006;28;20379;-83
2023/05/03 00:12:41;;;;;;;10.00;9.27;;;;;;;;;;5070966;28;20384;-83
2023/05/03 00:15:08;;;;;;;9.80;9.07;;;;;;;;;;5071025;28;20383;-84
2023/05/03 00:17:34;;;;;;;9.80;9.07;;;;;;;;;;5071082;28;20372;-83
2023/05/03 00:20:00;;;;;;;9.40;8.70;;;;;;;;;;5069177;28;20376;-83
2023/05/03 00:22:26;;;;;;;9.53;8.73;;;;;;;;;;5060079;28;20463;-83
2023/05/03 00:24:52;;;;;;;9.23;8.52;;;;;;;;;;5071010;28;20432;-84
2023/05/03 00:27:18;;;;;;;8.93;8.23;;;;;;;;;;5068977;28;20880;-83
2023/05/03 00:29:45;;;;;;;9.15;8.45;;;;;;;;;;5063521;28;20383;-83
2023/05/03 00:32:11;;;;;;;8.77;8.18;;;;;;;;;;5070733;28;20371;-83
2023/05/03 00:34:40;;;;;;;9.23;8.52;;;;;;;;;;5070833;28;20461;-84
2023/05/03 00:37:06;;;;;;;9.20;8.57;;;;;;;;;;5070640;28;20479;-84
2023/05/03 00:39:32;;;;;;;10.65;9.68;;;;;;;;;;5070825;28;20908;-83
2023/05/03 00:41:58;;;;;;;11.63;10.63;;;;;;;;;;5070816;28;20402;-84
2023/05/03 00:44:24;;;;;;;12.40;11.32;;;;;;;;;;5070667;28;20416;-84
2023/05/03 00:46:51;;;;;;;13.20;12.00;;;;;;;;;;5070810;28;20401;-83
2023/05/03 00:49:17;;;;;;;12.25;11.05;;;;;;;;;;5070622;28;20916;-84
2023/05/03 00:51:43;;;;;;;11.98;10.98;;;;;;;;;;5074776;28;20884;-84
2023/05/03 00:54:10;;;;;;;11.90;10.90;;;;;;;;;;5065914;28;20401;-83
2023/05/03 00:56:37;;;;;;;12.43;11.30;;;;;;;;;;5074576;28;20387;-84
2023/05/03 00:59:03;;;;;;;11.85;10.77;;;;;;;;;;5074433;28;20384;-83
2023/05/03 01:01:30;;;;;;;12.35;11.15;;;;;;;;;;5072593;28;20376;-83
2023/05/03 01:03:56;;;;;;;11.95;10.85;;;;;;;;;;5074461;28;20390;-83
2023/05/03 01:06:50;;;;;;;12.07;11.07;;;;;;;;;;5074298;28;20785;-83
2023/05/03 01:09:16;;;;;;;11.30;10.30;;;;;;;;;;5051706;28;20415;-84
2023/05/03 01:11:54;;;;;;;10.32;9.43;;;;;;;;;;5074140;28;20418;-84
2023/05/03 01:14:36;;;;;;;9.85;8.93;;;;;;;;;;5074044;28;20457;-83
2023/05/03 01:17:05;;;;;;;9.23;8.53;;;;;;;;;;5074017;28;20367;-83
2023/05/03 01:19:34;;;;;;;9.77;9.02;;;;;;;;;;5074130;28;20383;-83
2023/05/03 01:22:10;;;;;;;10.05;9.23;;;;;;;;;;5070586;28;20380;-84
2023/05/03 01:24:37;;;;;;;8.40;7.70;;;;;;;;;;5074129;28;20429;-83
2023/05/03 01:27:04;;;;;;;8.32;7.72;;;;;;;;;;5073908;28;20383;-83
2023/05/03 01:29:30;;;;;;;9.73;8.93;;;;;;;;;;5074049;28;20824;-84
2023/05/03 01:32:03;;;;;;;9.10;8.40;;;;;;;;;;5073786;28;20449;-83
2023/05/03 01:34:40;;;;;;;8.63;7.93;;;;;;;;;;5072663;28;20416;-84
2023/05/03 01:37:09;;;;;;;9.27;8.48;;;;;;;;;;5073720;28;20407;-83
2023/05/03 01:39:43;;;;;;;8.60;7.85;;;;;;;;;;5072502;28;20881;-84
2023/05/03 01:42:09;;;;;;;8.23;7.53;;;;;;;;;;5073497;28;20466;-83
2023/05/03 01:44:36;;;;;;;8.75;7.93;;;;;;;;;;5073521;28;20494;-83
2023/05/03 01:47:02;;;;;;;8.07;7.47;;;;;;;;;;5073596;28;20384;-83
2023/05/03 01:49:28;;;;;;;10.52;9.52;;;;;;;;;;5073357;28;20390;-84
2023/05/03 01:51:54;;;;;;;12.75;10.40;;;;;;;;;;5073614;28;20379;-83
2023/05/03 01:54:21;;;;;;;12.18;11.13;;;;;;;;;;5073231;28;20395;-84
2023/05/03 01:56:47;;;;;;;11.85;10.75;;;;;;;;;;5073604;28;20506;-83
2023/05/03 01:59:13;;;;;;;11.30;10.23;;;;;;;;;;5073007;28;20553;-84
2023/05/03 02:01:39;;;;;;;11.93;10.85;;;;;;;;;;5072013;28;20880;-83
2023/05/03 02:04:05;;;;;;;11.20;10.15;;;;;;;;;;5073333;28;20380;-82
2023/05/03 02:06:31;;;;;;;11.67;10.47;;;;;;;;;;5073114;28;20383;-82
2023/05/03 02:08:57;;;;;;;12.77;11.50;;;;;;;;;;5073277;28;20745;-82
2023/05/03 02:11:23;;;;;;;13.70;12.20;;;;;;;;;;5073295;28;20738;-83
2023/05/03 02:13:49;;;;;;;12.65;11.35;;;;;;;;;;5073108;28;20399;-82
2023/05/03 02:16:16;;;;;;;13.20;11.70;;;;;;;;;;5073156;28;20395;-82
2023/05/03 02:18:42;;;;;;;11.30;10.30;;;;;;;;;;5067943;28;20826;-82
2023/05/03 02:21:09;;;;;;;10.68;9.77;;;;;;;;;;5071054;28;20384;-82
2023/05/03 02:23:35;;;;;;;9.65;8.85;;;;;;;;;;5072777;28;20426;-82
2023/05/03 02:26:01;;;;;;;9.65;8.85;;;;;;;;;;5072669;28;20382;-82
2023/05/03 02:28:27;;;;;;;9.40;8.55;;;;;;;;;;5068993;28;20394;-83
2023/05/03 02:30:53;;;;;;;8.48;7.57;;;;;;;;;;5067718;28;20412;-83
2023/05/03 02:33:19;;;;;;;8.60;7.90;;;;;;;;;;5065443;28;20510;-84
2023/05/03 02:35:45;;;;;;;8.33;7.67;;;;;;;;;;5061958;28;20407;-82
2023/05/03 02:38:11;;;;;;;9.18;8.35;;;;;;;;;;5064333;28;20431;-83
2023/05/03 02:40:37;;;;;;;8.77;8.07;;;;;;;;;;5065073;28;20478;-83
2023/05/03 02:43:03;;;;;;;8.10;7.50;;;;;;;;;;5065846;28;20804;-84
2023/05/03 02:45:29;;;;;;;8.13;7.53;;;;;;;;;;5068703;28;20398;-84
2023/05/03 02:47:55;;;;;;;8.05;7.25;;;;;;;;;;5061766;28;20375;-84
2023/05/03 02:50:21;;;;;;;7.75;6.95;;;;;;;;;;5070043;28;20450;-84
2023/05/03 02:52:47;;;;;;;8.30;7.60;;;;;;;;;;5064517;28;20384;-84
2023/05/03 02:55:13;;;;;;;8.52;7.60;;;;;;;;;;5081758;28;20411;-84
2023/05/03 02:57:39;;;;;;;7.93;7.22;;;;;;;;;;5067016;28;20437;-84
2023/05/03 03:00:05;;;;;;;7.82;7.22;;;;;;;;;;5068470;28;20861;-84
2023/05/03 03:02:32;;;;;;;8.18;7.43;;;;;;;;;;5070506;28;20522;-84
2023/05/03 03:04:58;;;;;;;7.95;7.20;;;;;;;;;;5071336;28;20470;-84
2023/05/03 03:07:24;;;;;;;7.60;6.90;;;;;;;;;;5071140;28;20739;-84
2023/05/03 03:09:50;;;;;;;7.82;7.15;;;;;;;;;;5070995;28;20865;-84
2023/05/03 03:12:16;;;;;;;8.38;7.68;;;;;;;;;;5067933;28;20380;-84
2023/05/03 03:14:44;;;;;;;7.57;6.95;;;;;;;;;;5070863;28;20414;-84
2023/05/03 03:17:11;;;;;;;7.57;6.88;;;;;;;;;;5068912;28;20368;-84
2023/05/03 03:19:37;;;;;;;7.55;6.95;;;;;;;;;;5069887;28;20415;-84
2023/05/03 03:22:03;;;;;;;7.80;7.13;;;;;;;;;;5069752;28;20445;-84
2023/05/03 03:24:29;;;;;;;8.02;7.32;;;;;;;;;;5069733;28;20395;-84
2023/05/03 03:26:55;;;;;;;7.68;6.95;;;;;;;;;;5069383;28;20474;-84
2023/05/03 03:29:21;;;;;;;7.85;7.13;;;;;;;;;;5069783;28;20411;-84
2023/05/03 03:31:46;;;;;;;7.88;7.18;;;;;;;;;;5069647;28;20423;-84
2023/05/03 03:34:13;;;;;;;7.93;7.13;;;;;;;;;;5069584;28;20855;-84
2023/05/03 03:36:38;;;;;;;7.90;7.10;;;;;;;;;;5070663;28;20385;-84
2023/05/03 03:39:05;;;;;;;7.85;7.15;;;;;;;;;;5067976;28;20377;-84
2023/05/03 03:41:35;;;;;;;7.32;6.72;;;;;;;;;;5069874;28;20471;-84
2023/05/03 03:44:01;;;;;;;7.57;6.90;;;;;;;;;;5070283;28;20403;-84
2023/05/03 03:46:27;;;;;;;8.73;6.78;;;;;;;;;;5070515;28;20462;-84
2023/05/03 03:48:53;;;;;;;9.02;7.25;;;;;;;;;;5070452;28;20387;-83
2023/05/03 03:51:19;;;;;;;8.25;7.47;;;;;;;;;;5070506;28;20387;-83
2023/05/03 03:53:45;;;;;;;8.45;7.75;;;;;;;;;;5070264;28;20444;-83
2023/05/03 03:56:11;;;;;;;7.53;6.82;;;;;;;;;;5070305;28;20391;-83
2023/05/03 03:58:37;;;;;;;7.72;6.80;;;;;;;;;;5070246;28;20386;-83
2023/05/03 04:01:03;;;;;;;11.18;6.43;;;;;;;;;;5070280;28;20376;-83
2023/05/03 04:03:29;;;;;;;7.85;7.05;;;;;;;;;;5070125;28;20880;-83
2023/05/03 04:05:55;;;;;;;7.47;6.78;;;;;;;;;;5070105;28;20391;-83
2023/05/03 04:08:21;;;;;;;8.82;7.38;;;;;;;;;;5071091;28;20396;-83
2023/05/03 04:10:47;;;;;;;7.37;6.77;;;;;;;;;;5070750;28;20399;-83
2023/05/03 04:13:13;;;;;;;7.78;7.07;;;;;;;;;;5070918;28;20469;-83
2023/05/03 04:15:39;;;;;;;7.93;7.18;;;;;;;;;;5070945;28;20411;-83
2023/05/03 04:18:06;;;;;;;8.20;7.50;;;;;;;;;;5060127;28;20404;-83
2023/05/03 04:20:32;;;;;;;8.23;7.53;;;;;;;;;;5067481;28;20380;-83
2023/05/03 04:22:59;;;;;;;9.33;7.43;;;;;;;;;;5055040;28;20427;-83
2023/05/03 04:25:25;;;;;;;8.20;7.35;;;;;;;;;;5069232;28;20380;-83
2023/05/03 04:27:52;;;;;;;8.55;7.75;;;;;;;;;;5074001;28;20383;-84
2023/05/03 04:30:18;;;;;;;8.52;7.72;;;;;;;;;;5073164;28;20419;-84
2023/05/03 04:32:46;;;;;;;9.75;7.25;;;;;;;;;;5073994;28;20386;-84
2023/05/03 04:35:12;;;;;;;7.75;6.95;;;;;;;;;;5062660;28;20411;-84
2023/05/03 04:37:38;;;;;;;7.13;6.50;;;;;;;;;;5074268;28;20388;-84
2023/05/03 04:40:10;;;;;;;7.63;6.93;;;;;;;;;;5072506;28;20383;-85
2023/05/03 04:42:37;;;;;;;8.18;7.43;;;;;;;;;;5073659;28;20380;-83
2023/05/03 04:45:05;;;;;;;8.13;7.43;;;;;;;;;;5073900;28;20387;-84
2023/05/03 04:47:31;;;;;;;9.18;8.27;;;;;;;;;;5073154;28;20383;-84
2023/05/03 04:49:57;;;;;;;8.48;7.72;;;;;;;;;;5073113;28;20372;-84
2023/05/03 04:52:24;;;;;;;8.30;7.60;;;;;;;;;;5062898;28;20466;-84
2023/05/03 04:54:50;;;;;;;8.87;8.07;;;;;;;;;;5074258;28;20565;-84
2023/05/03 04:57:16;;;;;;;9.40;8.63;;;;;;;;;;5073789;28;20404;-84
2023/05/03 04:59:42;;;;;;;9.40;8.60;;;;;;;;;;5074187;28;20372;-85
2023/05/03 05:02:08;;;;;;;8.73;8.02;;;;;;;;;;5066528;28;20411;-84
2023/05/03 05:04:34;;;;;;;9.77;8.70;;;;;;;;;;5068426;28;20391;-84
2023/05/03 05:07:00;;;;;;;12.88;9.35;;;;;;;;;;5069139;28;20388;-84
2023/05/03 05:09:27;;;;;;;10.45;9.43;;;;;;;;;;5053650;28;20392;-84
2023/05/03 05:11:53;;;;;;;11.05;9.93;;;;;;;;;;5070533;28;20458;-84
2023/05/03 05:14:19;;;;;;;10.57;9.57;;;;;;;;;;5073162;28;20413;-84
2023/05/03 05:16:45;;;;;;;9.50;8.70;;;;;;;;;;5072333;28;20455;-84
2023/05/03 05:19:12;;;;;;;10.40;9.50;;;;;;;;;;5073850;28;20876;-86
2023/05/03 05:21:38;;;;;;;9.85;8.93;;;;;;;;;;5073568;28;20383;-85
2023/05/03 05:24:04;;;;;;;10.85;9.85;;;;;;;;;;5073065;28;20395;-85
2023/05/03 05:26:31;;;;;;;11.23;10.07;;;;;;;;;;5073184;28;20430;-86
2023/05/03 05:28:57;;;;;;;11.82;10.73;;;;;;;;;;5071246;28;20801;-86
2023/05/03 05:31:23;;;;;;;11.98;10.88;;;;;;;;;;5072956;28;20395;-86
2023/05/03 05:33:49;;;;;;;12.68;11.38;;;;;;;;;;5072854;28;20457;-85
2023/05/03 05:36:15;;;;;;;12.98;11.77;;;;;;;;;;5072688;28;20853;-85
2023/05/03 05:38:41;;;;;;;11.30;10.20;;;;;;;;;;5071236;28;20926;-85
2023/05/03 05:41:07;;;;;;;12.10;10.90;;;;;;;;;;5071966;28;20376;-84
2023/05/03 05:43:33;;;;;;;12.25;11.05;;;;;;;;;;5072914;28;20920;-84
2023/05/03 05:45:59;;;;;;;11.40;10.40;;;;;;;;;;5073566;28;20412;-84
2023/05/03 05:48:25;;;;;;;11.40;10.30;;;;;;;;;;5072299;28;20877;-84
2023/05/03 05:50:51;;;;;;;12.80;11.27;;;;;;;;;;5073594;28;20386;-84
2023/05/03 05:53:17;;;;;;;11.77;10.73;;;;;;;;;;5073269;28;20411;-84
2023/05/03 05:55:43;;;;;;;12.43;11.32;;;;;;;;;;5073387;28;20387;-84
2023/05/03 05:58:11;;;;;;;12.52;11.23;;;;;;;;;;5073048;28;20372;-84
2023/05/03 06:00:37;;;;;;;13.15;12.05;;;;;;;;;;5073450;28;20403;-85
2023/05/03 06:03:04;;;;;;;13.18;11.98;;;;;;;;;;5072629;28;20469;-85
2023/05/03 06:05:30;;;;;;;64.40;54.35;;;;;;;;;;5073368;28;20883;-90
2023/05/03 06:07:56;;;;;;;14.65;13.20;;;;;;;;;;5073248;28;20465;-90
2023/05/03 06:10:22;;;;;;;14.35;13.05;;;;;;;;;;5071893;28;20407;-92
2023/05/03 06:12:48;;;;;;;14.50;13.20;;;;;;;;;;5073132;28;20570;-90
2023/05/03 06:15:14;;;;;;;14.52;13.15;;;;;;;;;;5073184;28;20893;-91
2023/05/03 06:17:40;;;;;;;14.10;12.90;;;;;;;;;;5073159;28;20871;-89
2023/05/03 06:20:10;;;;;;;15.45;13.98;;;;;;;;;;5073118;28;20399;-89
2023/05/03 06:22:36;;;;;;;14.40;13.10;;;;;;;;;;5073328;28;20396;-90
2023/05/03 06:25:02;;;;;;;15.63;14.07;;;;;;;;;;5071654;28;21229;-91
2023/05/03 06:27:28;;;;;;;15.88;14.50;;;;;;;;;;5071715;28;20383;-90
2023/05/03 06:29:54;;;;;;;17.10;15.32;;;;;;;;;;5072915;28;20466;-92
2023/05/03 06:32:20;;;;;;;18.60;16.70;;;;;;;;;;5072629;28;20426;-91
2023/05/03 06:34:48;;;;;;;18.58;16.88;;;;;;;;;;5071721;28;20904;-90
2023/05/03 06:37:14;;;;;;;17.92;16.23;;;;;;;;;;5071200;28;20387;-90
2023/05/03 06:39:40;;;;;;;16.77;15.20;;;;;;;;;;5071789;28;20808;-92
2023/05/03 06:42:06;;;;;;;18.60;16.73;;;;;;;;;;5072665;28;20415;-89
2023/05/03 06:44:32;;;;;;;19.50;17.67;;;;;;;;;;5071595;28;20403;-88
2023/05/03 06:46:58;;;;;;;20.15;18.25;;;;;;;;;;5072171;28;20425;-90
2023/05/03 06:49:24;;;;;;;19.58;16.95;;;;;;;;;;5069656;28;20383;-91
2023/05/03 06:51:51;;;;;;;94.70;25.58;;;;;;;;;;5072314;28;20534;-90
2023/05/03 06:54:18;;;;;;;43.20;18.67;;;;;;;;;;5071692;28;20893;-89
2023/05/03 06:56:45;;;;;;;20.42;16.70;;;;;;;;;;5067928;28;20387;-89
2023/05/03 06:59:11;;;;;;;17.90;16.27;;;;;;;;;;5071005;28;20865;-92
2023/05/03 07:01:37;;;;;;;17.77;16.30;;;;;;;;;;5069712;28;20388;-91
2023/05/03 07:04:03;;;;;;;18.30;16.60;;;;;;;;;;5071897;28;20410;-91
2023/05/03 07:06:30;;;;;;;17.45;15.93;;;;;;;;;;5114916;22;20412;-78
2023/05/03 07:08:56;;;;;;;17.50;16.00;;;;;;;;;;5096409;28;20411;-78
2023/05/03 07:11:25;;;;;;;17.65;16.15;;;;;;;;;;5108775;28;20380;-78
2023/05/03 07:13:51;;;;;;;17.85;16.30;;;;;;;;;;5093255;28;20398;-78
2023/05/03 07:16:18;;;;;;;18.08;16.58;;;;;;;;;;5093414;28;20391;-78
2023/05/03 07:18:45;;;;;;;18.02;16.52;;;;;;;;;;5111303;28;20372;-78
2023/05/03 07:21:11;;;;;;;18.30;16.70;;;;;;;;;;5112974;28;20368;-78
2023/05/03 07:23:37;;;;;;;18.52;17.02;;;;;;;;;;5112883;28;20745;-79
2023/05/03 07:26:03;;;;;;;18.95;17.30;;;;;;;;;;5112618;28;20391;-78
2023/05/03 07:28:29;;;;;;;17.43;15.93;;;;;;;;;;5112530;28;20463;-78
2023/05/03 07:30:55;;;;;;;17.73;16.33;;;;;;;;;;5094293;28;20368;-78
2023/05/03 07:33:21;;;;;;;16.92;15.43;;;;;;;;;;5112539;28;20407;-78
2023/05/03 07:35:47;;;;;;;19.33;17.57;;;;;;;;;;5112490;28;20437;-78
2023/05/03 07:38:14;;;;;;;17.70;16.20;;;;;;;;;;5112572;28;20760;-78
2023/05/03 07:40:40;;;;;;;17.27;15.88;;;;;;;;;;5112152;28;20372;-78
2023/05/03 07:43:08;;;;;;;16.90;15.60;;;;;;;;;;5112339;28;20734;-79
2023/05/03 07:45:34;;;;;;;18.15;16.60;;;;;;;;;;5112425;28;20372;-78
2023/05/03 07:48:00;;;;;;;16.60;15.30;;;;;;;;;;5112001;28;20451;-79
2023/05/03 07:50:26;;;;;;;16.73;15.32;;;;;;;;;;5112587;28;20380;-79
2023/05/03 07:52:53;;;;;;;16.23;14.63;;;;;;;;;;5112558;28;20382;-79
2023/05/03 07:55:19;;;;;;;14.82;13.63;;;;;;;;;;5112243;28;20383;-79
2023/05/03 07:57:45;;;;;;;14.53;13.23;;;;;;;;;;5112199;28;20403;-79
2023/05/03 08:00:12;;;;;;;13.85;12.75;;;;;;;;;;5112370;28;20369;-79
2023/05/03 08:02:38;;;;;;;14.20;13.05;;;;;;;;;;5112245;28;20391;-79
2023/05/03 08:05:05;;;;;;;13.80;12.70;;;;;;;;;;5112087;28;20879;-79
2023/05/03 08:07:31;;;;;;;14.13;12.93;;;;;;;;;;5111940;28;20815;-79
2023/05/03 08:09:57;;;;;;;13.65;12.65;;;;;;;;;;5112088;28;20476;-79
2023/05/03 08:12:27;;;;;;;13.52;12.38;;;;;;;;;;5112081;28;20381;-79
2023/05/03 08:14:54;;;;;;;14.25;13.25;;;;;;;;;;5111941;28;20403;-79
2023/05/03 08:17:21;;;;;;;13.43;12.38;;;;;;;;;;5112277;28;20368;-79
2023/05/03 08:19:47;;;;;;;16.23;14.93;;;;;;;;;;5112229;28;20369;-79
2023/05/03 08:22:13;;;;;;;16.70;15.30;;;;;;;;;;5112093;28;20391;-79
2023/05/03 08:24:41;;;;;;;18.27;16.67;;;;;;;;;;5112154;28;20368;-79
2023/05/03 08:27:08;;;;;;;18.00;16.50;;;;;;;;;;5111799;28;20379;-79
2023/05/03 08:29:36;;;;;;;17.10;15.70;;;;;;;;;;5112236;28;20380;-79
2023/05/03 08:32:03;;;;;;;16.15;14.90;;;;;;;;;;5111606;28;20376;-79
2023/05/03 08:34:29;;;;;;;15.65;14.45;;;;;;;;;;5111175;28;20400;-79
2023/05/03 08:36:58;;;;;;;15.55;14.27;;;;;;;;;;5111948;28;20372;-80
2023/05/03 08:39:25;;;;;;;18.08;14.88;;;;;;;;;;5111596;28;20428;-79
2023/05/03 08:41:52;;;;;;;15.88;14.57;;;;;;;;;;5111601;28;20376;-79
2023/05/03 08:44:23;;;;;;;17.42;15.90;;;;;;;;;;5111413;28;20741;-79
2023/05/03 08:46:49;;;;;;;17.55;16.05;;;;;;;;;;5111756;28;20380;-79
2023/05/03 08:49:16;;;;;;;17.95;16.55;;;;;;;;;;5111710;28;20392;-79
2023/05/03 08:51:45;;;;;;;15.52;14.40;;;;;;;;;;5111892;28;20455;-79
2023/05/03 08:54:12;;;;;;;16.63;15.32;;;;;;;;;;5111440;28;20403;-80
2023/05/03 08:56:40;;;;;;;15.55;14.35;;;;;;;;;;5111742;28;20384;-79
2023/05/03 08:59:07;;;;;;;14.93;13.82;;;;;;;;;;5108822;28;20372;-80
2023/05/03 09:01:34;;;;;;;15.43;14.23;;;;;;;;;;5112113;28;20385;-81
2023/05/03 09:04:00;;;;;;;15.60;14.40;;;;;;;;;;5111740;28;20384;-80
2023/05/03 09:06:27;;;;;;;15.05;13.75;;;;;;;;;;5109463;28;20429;-80
2023/05/03 09:08:53;;;;;;;15.07;13.93;;;;;;;;;;5111934;28;20414;-80
2023/05/03 09:11:28;;;;;;;15.43;14.18;;;;;;;;;;5113654;28;20412;-80
2023/05/03 09:14:02;;;;;;;15.30;14.07;;;;;;;;;;5115851;28;20396;-80
2023/05/03 09:16:29;;;;;;;14.77;13.68;;;;;;;;;;5116111;28;20387;-80
2023/05/03 09:18:58;;;;;;;14.38;13.27;;;;;;;;;;5115699;28;20400;-80
2023/05/03 09:21:24;;;;;;;13.65;12.55;;;;;;;;;;5113670;28;20403;-81
2023/05/03 09:23:51;;;;;;;13.95;12.93;;;;;;;;;;5115224;28;20881;-80
2023/05/03 09:26:29;;;;;;;13.40;12.40;;;;;;;;;;5115266;28;20464;-80
2023/05/03 09:28:55;;;;;;;13.73;12.63;;;;;;;;;;5097047;28;20487;-80
2023/05/03 09:31:21;;;;;;;13.40;12.30;;;;;;;;;;5115419;28;20376;-80
2023/05/03 09:33:47;;;;;;;13.63;12.53;;;;;;;;;;5114927;28;20886;-80
2023/05/03 09:36:13;;;;;;;12.18;11.18;;;;;;;;;;5114969;28;20396;-80
2023/05/03 09:38:39;;;;;;;12.73;11.82;;;;;;;;;;5114686;28;20376;-80
2023/05/03 09:41:05;;;;;;;12.98;11.88;;;;;;;;;;5114777;28;20421;-80
2023/05/03 09:43:32;;;;;;;12.27;11.27;;;;;;;;;;5114565;28;20372;-80
2023/05/03 09:46:11;;;;;;;13.13;12.23;;;;;;;;;;5114390;28;20486;-80
2023/05/03 09:48:37;;;;;;;11.93;11.13;;;;;;;;;;5113561;28;20739;-80
2023/05/03 09:51:04;;;;;;;12.73;11.82;;;;;;;;;;5110554;28;20944;-81
2023/05/03 09:53:31;;;;;;;12.68;11.70;;;;;;;;;;5113073;28;20479;-81
2023/05/03 09:55:59;;;;;;;12.93;11.82;;;;;;;;;;5113747;28;20434;-81
2023/05/03 09:58:26;;;;;;;12.07;11.18;;;;;;;;;;5114165;28;20376;-82
2023/05/03 10:00:53;;;;;;;11.63;10.82;;;;;;;;;;5114104;28;20375;-81
2023/05/03 10:03:23;;;;;;;12.40;11.50;;;;;;;;;;5114044;28;20495;-82
2023/05/03 10:05:53;;;;;;;11.00;10.20;;;;;;;;;;5113872;28;20392;-81
2023/05/03 10:08:26;;;;;;;11.63;10.82;;;;;;;;;;5114043;28;20485;-83
2023/05/03 10:10:53;;;;;;;11.10;10.30;;;;;;;;;;5114735;28;20419;-82
2023/05/03 10:13:20;;;;;;;11.27;10.37;;;;;;;;;;5114270;28;20411;-82
2023/05/03 10:15:47;;;;;;;10.65;9.85;;;;;;;;;;5113604;28;20372;-81
2023/05/03 10:18:15;;;;;;;10.83;9.97;;;;;;;;;;5113978;28;20407;-81
2023/05/03 10:20:49;;;;;;;9.88;9.18;;;;;;;;;;5113743;28;20371;-81
2023/05/03 10:23:15;;;;;;;9.60;8.80;;;;;;;;;;5112003;28;20389;-82
2023/05/03 10:26:01;;;;;;;9.77;9.07;;;;;;;;;;5113452;28;20881;-81
2023/05/03 10:28:27;;;;;;;9.07;8.48;;;;;;;;;;5113220;28;20881;-82
2023/05/03 10:30:53;;;;;;;9.43;8.70;;;;;;;;;;5113615;28;20436;-82
2023/05/03 10:33:19;;;;;;;10.50;9.77;;;;;;;;;;5113410;28;20400;-82
2023/05/03 10:35:51;;;;;;;9.68;8.98;;;;;;;;;;5113259;28;20397;-80
2023/05/03 10:38:21;;;;;;;9.27;8.68;;;;;;;;;;5111568;28;20375;-80
2023/05/03 10:40:48;;;;;;;10.00;9.20;;;;;;;;;;5112680;28;20385;-81
2023/05/03 10:43:32;;;;;;;9.02;8.32;;;;;;;;;;5112658;28;20467;-81
2023/05/03 10:46:00;;;;;;;9.30;8.60;;;;;;;;;;5112634;28;20526;-81
2023/05/03 10:48:27;;;;;;;8.00;7.40;;;;;;;;;;5093642;28;20389;-82
2023/05/03 10:50:56;;;;;;;9.40;8.70;;;;;;;;;;5111280;28;20435;-80
2023/05/03 10:53:32;;;;;;;8.50;7.80;;;;;;;;;;5112971;28;20408;-80
2023/05/03 10:56:04;;;;;;;9.50;8.80;;;;;;;;;;5091031;28;20408;-82
2023/05/03 10:58:32;;;;;;;8.57;7.87;;;;;;;;;;5110746;28;20383;-82
2023/05/03 11:00:58;;;;;;;8.90;8.30;;;;;;;;;;5112799;28;20475;-82
2023/05/03 11:03:34;;;;;;;8.63;7.80;;;;;;;;;;5112666;28;20379;-81
2023/05/03 11:06:02;;;;;;;7.47;6.88;;;;;;;;;;5112689;28;20369;-81
2023/05/03 11:08:36;;;;;;;7.55;7.05;;;;;;;;;;5112463;28;21244;-81
2023/05/03 11:11:06;;;;;;;7.03;6.53;;;;;;;;;;5112149;28;20420;-81
2023/05/03 11:13:32;;;;;;;6.85;6.35;;;;;;;;;;5112614;28;20404;-81
2023/05/03 11:15:58;;;;;;;7.25;6.68;;;;;;;;;;5112552;28;20425;-81
2023/05/03 11:18:29;;;;;;;6.95;6.45;;;;;;;;;;5112259;28;20742;-81
2023/05/03 11:20:55;;;;;;;7.30;6.80;;;;;;;;;;5112295;28;20368;-81
2023/05/03 11:23:27;;;;;;;7.40;6.90;;;;;;;;;;5111966;28;20434;-82
2023/05/03 11:25:53;;;;;;;6.60;6.10;;;;;;;;;;5112132;28;20380;-82
2023/05/03 11:28:20;;;;;;;6.20;5.60;;;;;;;;;;5112184;28;20409;-82
2023/05/03 11:30:46;;;;;;;5.75;5.35;;;;;;;;;;5112155;28;20376;-81
2023/05/03 11:33:12;;;;;;;5.68;5.28;;;;;;;;;;5111939;28;20802;-82
2023/05/03 11:35:38;;;;;;;6.93;6.43;;;;;;;;;;5109869;28;20376;-82
2023/05/03 11:38:04;;;;;;;5.78;5.38;;;;;;;;;;5108951;28;20377;-81
2023/05/03 11:40:30;;;;;;;5.53;5.13;;;;;;;;;;5112184;28;20373;-82
2023/05/03 11:42:58;;;;;;;5.60;5.10;;;;;;;;;;5112185;28;20384;-82
2023/05/03 11:45:31;;;;;;;6.45;6.05;;;;;;;;;;5093536;28;20400;-82
2023/05/03 11:47:57;;;;;;;5.80;5.40;;;;;;;;;;5112081;28;20376;-81
2023/05/03 11:50:27;;;;;;;5.20;4.80;;;;;;;;;;5112058;28;20869;-82
2023/05/03 11:52:53;;;;;;;5.15;4.75;;;;;;;;;;5111936;28;20388;-83
2023/05/03 11:55:21;;;;;;;5.80;5.15;;;;;;;;;;5111967;28;20372;-81
2023/05/03 11:57:47;;;;;;;6.00;5.40;;;;;;;;;;5109773;28;20395;-82
2023/05/03 12:00:15;;;;;;;5.50;5.10;;;;;;;;;;5111775;28;20857;-82
2023/05/03 12:02:41;;;;;;;5.85;5.45;;;;;;;;;;5111787;28;20364;-81
2023/05/03 12:05:08;;;;;;;5.13;4.72;;;;;;;;;;5111913;28;20943;-81
2023/05/03 12:07:34;;;;;;;5.40;5.00;;;;;;;;;;5111864;28;20866;-82
2023/05/03 12:10:11;;;;;;;4.97;4.57;;;;;;;;;;5113525;28;20384;-83
2023/05/03 12:12:37;;;;;;;5.53;5.03;;;;;;;;;;5113322;28;20381;-83
2023/05/03 12:15:04;;;;;;;5.50;5.10;;;;;;;;;;5112573;28;20412;-83
2023/05/03 12:17:37;;;;;;;4.20;3.90;;;;;;;;;;5112668;28;20770;-84
2023/05/03 12:20:19;;;;;;;4.40;4.10;;;;;;;;;;5112210;28;20380;-86
2023/05/03 12:22:48;;;;;;;4.97;4.57;;;;;;;;;;5094550;28;20384;-86
2023/05/03 12:25:14;;;;;;;5.43;4.65;;;;;;;;;;5111855;28;20426;-86
2023/05/03 12:27:40;;;;;;;6.07;5.03;;;;;;;;;;5112462;28;20383;-86
2023/05/03 12:30:09;;;;;;;5.28;4.88;;;;;;;;;;5094666;28;20380;-85
2023/05/03 12:32:36;;;;;;;5.50;5.10;;;;;;;;;;5112723;28;20384;-85
2023/05/03 12:35:02;;;;;;;5.63;5.20;;;;;;;;;;5113263;28;20437;-87
2023/05/03 12:37:28;;;;;;;5.88;5.43;;;;;;;;;;5112335;28;20433;-85
2023/05/03 12:39:55;;;;;;;10.63;7.03;;;;;;;;;;5112955;28;20376;-85
2023/05/03 12:42:21;;;;;;;6.63;6.13;;;;;;;;;;5113771;28;20457;-85
2023/05/03 12:44:47;;;;;;;12.38;6.30;;;;;;;;;;5112567;28;20409;-86
2023/05/03 12:47:14;;;;;;;6.05;5.65;;;;;;;;;;5114700;28;20495;-87
2023/05/03 12:49:40;;;;;;;5.83;5.43;;;;;;;;;;5114998;28;20380;-87
2023/05/03 12:52:06;;;;;;;5.72;5.13;;;;;;;;;;5110674;28;20376;-86
2023/05/03 12:54:34;;;;;;;5.70;5.22;;;;;;;;;;5103869;28;20404;-87
2023/05/03 12:57:02;;;;;;;6.18;5.47;;;;;;;;;;5097195;28;20851;-87
2023/05/03 12:59:29;;;;;;;6.23;5.73;;;;;;;;;;5114623;28;20463;-87
2023/05/03 13:01:55;;;;;;;7.78;5.65;;;;;;;;;;5115311;28;20372;-87
2023/05/03 13:04:21;;;;;;;5.68;5.28;;;;;;;;;;5097527;28;20522;-87
2023/05/03 13:06:51;;;;;;;6.45;5.95;;;;;;;;;;5114898;28;20407;-87
2023/05/03 13:09:18;;;;;;;6.03;5.53;;;;;;;;;;5115533;28;20383;-87
2023/05/03 13:11:45;;;;;;;8.05;5.22;;;;;;;;;;5115057;28;20386;-86
2023/05/03 13:14:14;;;;;;;6.07;5.57;;;;;;;;;;5115088;28;20419;-87
2023/05/03 13:16:40;;;;;;;6.90;5.97;;;;;;;;;;5115156;28;20384;-86
2023/05/03 13:19:06;;;;;;;6.03;5.63;;;;;;;;;;5115961;28;20390;-87
2023/05/03 13:21:32;;;;;;;6.25;5.85;;;;;;;;;;5115309;28;20733;-87
2023/05/03 13:23:58;;;;;;;6.50;5.90;;;;;;;;;;5096625;28;20372;-85
2023/05/03 13:26:24;;;;;;;6.28;5.78;;;;;;;;;;5114823;28;20437;-86
2023/05/03 13:28:50;;;;;;;7.10;6.50;;;;;;;;;;5114659;28;20388;-86
2023/05/03 13:31:17;;;;;;;5.10;4.70;;;;;;;;;;5114616;28;20459;-87
2023/05/03 13:33:43;;;;;;;5.28;4.75;;;;;;;;;;5114651;28;20457;-86
2023/05/03 13:36:10;;;;;;;6.00;5.50;;;;;;;;;;5114491;28;20455;-86
2023/05/03 13:38:36;;;;;;;5.85;5.45;;;;;;;;;;5114746;28;20423;-86
2023/05/03 13:41:10;;;;;;;6.10;5.50;;;;;;;;;;5114685;28;20447;-86
2023/05/03 13:43:36;;;;;;;6.10;5.60;;;;;;;;;;5096333;28;20381;-86
2023/05/03 13:46:02;;;;;;;5.75;5.25;;;;;;;;;;5114144;28;20880;-87
2023/05/03 13:48:28;;;;;;;5.88;5.47;;;;;;;;;;5096249;28;20381;-86
2023/05/03 13:50:54;;;;;;;5.57;5.18;;;;;;;;;;5114481;28;20857;-86
2023/05/03 13:53:20;;;;;;;6.00;5.50;;;;;;;;;;5113373;28;20485;-84
2023/05/03 13:55:46;;;;;;;5.45;5.05;;;;;;;;;;5113909;28;20376;-84
2023/05/03 13:58:12;;;;;;;5.20;4.80;;;;;;;;;;5113666;28;20392;-84
2023/05/03 14:00:38;;;;;;;5.10;4.70;;;;;;;;;;5113776;28;20463;-84
2023/05/03 14:03:05;;;;;;;4.68;4.28;;;;;;;;;;5095277;28;20380;-87
2023/05/03 14:05:31;;;;;;;5.13;4.40;;;;;;;;;;5113871;28;20377;-80
2023/05/03 14:07:58;;;;;;;4.78;4.38;;;;;;;;;;5113830;28;20922;-80
2023/05/03 14:10:24;;;;;;;5.32;4.93;;;;;;;;;;5113680;28;20379;-80
2023/05/03 14:12:51;;;;;;;4.57;4.28;;;;;;;;;;5113995;28;20376;-79
2023/05/03 14:15:17;;;;;;;4.70;4.40;;;;;;;;;;5095445;28;20765;-80
2023/05/03 14:17:46;;;;;;;4.90;4.50;;;;;;;;;;5113875;28;20430;-80
2023/05/03 14:20:16;;;;;;;5.60;5.10;;;;;;;;;;5113726;28;20368;-80
2023/05/03 14:22:42;;;;;;;5.40;5.00;;;;;;;;;;5113844;28;20380;-79
2023/05/03 14:25:08;;;;;;;4.75;4.32;;;;;;;;;;5113605;28;20376;-80
2023/05/03 14:27:34;;;;;;;5.32;4.82;;;;;;;;;;5095327;28;20386;-80
2023/05/03 14:30:00;;;;;;;5.10;4.70;;;;;;;;;;5113726;28;20376;-79